Time;durP1;ratioP1;P1;durP2;ratioP2;P2;SDS_P1;SDS_P2;PMS_P1;PMS_P2;Temp;Humidity;BMP_temperature;BMP_pressure;BME280_temperature;BME280_humidity;BME280_pressure;Samples;Min_cycle;Max_cycle;Signal;HPM_P1;HPM_P2
2023/08/17 00:02:17;;;;;;;1.40;1.30;;;;;;;;;;5030841;28;20668;-81
2023/08/17 00:04:43;;;;;;;3.27;1.80;;;;;;;;;;5038629;28;20201;-82
2023/08/17 00:07:09;;;;;;;2.43;1.73;;;;;;;;;;5036885;28;20258;-81
2023/08/17 00:09:35;;;;;;;1.63;1.53;;;;;;;;;;5046885;28;20598;-82
2023/08/17 00:12:02;;;;;;;2.60;1.50;;;;;;;;;;5031252;28;20185;-80
2023/08/17 00:14:28;;;;;;;2.73;1.70;;;;;;;;;;5032224;28;20193;-81
2023/08/17 00:16:54;;;;;;;3.10;1.70;;;;;;;;;;5048442;28;20239;-81
2023/08/17 00:19:20;;;;;;;1.70;1.50;;;;;;;;;;5046667;28;20208;-81
2023/08/17 00:21:46;;;;;;;3.13;1.40;;;;;;;;;;5031040;28;20584;-81
2023/08/17 00:24:12;;;;;;;2.67;1.47;;;;;;;;;;5030962;28;20182;-81
2023/08/17 00:26:38;;;;;;;2.23;1.47;;;;;;;;;;5046818;28;20181;-81
2023/08/17 00:29:05;;;;;;;2.73;1.70;;;;;;;;;;5028775;28;20281;-81
2023/08/17 00:31:31;;;;;;;2.80;1.63;;;;;;;;;;5029979;28;20189;-81
2023/08/17 00:33:57;;;;;;;3.27;1.57;;;;;;;;;;5052151;28;20182;-81
2023/08/17 00:36:24;;;;;;;2.57;1.83;;;;;;;;;;5028716;28;20247;-81
2023/08/17 00:38:50;;;;;;;3.00;1.67;;;;;;;;;;5035116;28;20201;-82
2023/08/17 00:41:16;;;;;;;2.90;1.70;;;;;;;;;;5036275;28;20193;-81
2023/08/17 00:43:43;;;;;;;3.97;1.40;;;;;;;;;;5034753;28;20190;-81
2023/08/17 00:46:09;;;;;;;2.33;1.60;;;;;;;;;;5018780;28;20213;-81
2023/08/17 00:48:35;;;;;;;2.87;1.63;;;;;;;;;;5048809;28;20377;-81
2023/08/17 00:51:02;;;;;;;3.97;1.50;;;;;;;;;;5035540;28;20185;-81
2023/08/17 00:53:30;;;;;;;1.90;1.40;;;;;;;;;;5051612;28;20169;-81
2023/08/17 00:55:56;;;;;;;1.80;1.70;;;;;;;;;;5033386;28;20198;-81
2023/08/17 00:58:22;;;;;;;2.40;1.60;;;;;;;;;;5015177;28;20213;-82
2023/08/17 01:00:49;;;;;;;3.10;1.60;;;;;;;;;;5017540;28;20181;-82
2023/08/17 01:03:15;;;;;;;1.77;1.50;;;;;;;;;;5014009;28;20182;-81
2023/08/17 01:05:41;;;;;;;2.47;1.53;;;;;;;;;;5030971;28;20217;-81
2023/08/17 01:08:08;;;;;;;2.77;2.00;;;;;;;;;;5055981;22;20249;-82
2023/08/17 01:10:45;;;;;;;2.03;1.77;;;;;;;;;;5046051;28;20197;-83
2023/08/17 01:13:15;;;;;;;4.23;1.87;;;;;;;;;;5047886;28;20222;-83
2023/08/17 01:15:46;;;;;;;5.33;1.60;;;;;;;;;;5031110;28;20194;-82
2023/08/17 01:18:22;;;;;;;4.07;1.90;;;;;;;;;;5009989;28;20631;-82
2023/08/17 01:20:49;;;;;;;2.93;1.80;;;;;;;;;;5009084;28;20339;-83
2023/08/17 01:23:15;;;;;;;3.87;1.70;;;;;;;;;;5016166;28;20178;-82
2023/08/17 01:25:44;;;;;;;3.47;1.90;;;;;;;;;;4999643;28;20228;-82
2023/08/17 01:28:11;;;;;;;3.77;2.00;;;;;;;;;;4994716;28;20256;-82
2023/08/17 01:30:43;;;;;;;1.90;1.60;;;;;;;;;;5016213;28;20190;-83
2023/08/17 01:33:09;;;;;;;2.37;1.73;;;;;;;;;;5017349;28;20182;-82
2023/08/17 01:35:41;;;;;;;3.90;1.50;;;;;;;;;;5018436;28;20185;-84
2023/08/17 01:38:10;;;;;;;2.77;1.83;;;;;;;;;;5052002;28;20210;-83
2023/08/17 01:40:37;;;;;;;2.63;1.80;;;;;;;;;;5034271;28;20209;-83
2023/08/17 01:43:04;;;;;;;3.67;1.80;;;;;;;;;;5036844;28;20186;-83
2023/08/17 01:45:30;;;;;;;2.37;1.63;;;;;;;;;;5028824;28;20562;-82
2023/08/17 01:47:56;;;;;;;2.63;1.83;;;;;;;;;;5021708;28;20190;-83
2023/08/17 01:50:22;;;;;;;5.83;2.03;;;;;;;;;;5018940;28;20232;-83
2023/08/17 01:52:52;;;;;;;3.03;1.90;;;;;;;;;;5020434;28;20206;-83
2023/08/17 01:55:22;;;;;;;2.80;1.90;;;;;;;;;;5002764;28;20179;-83
2023/08/17 01:57:48;;;;;;;3.70;1.70;;;;;;;;;;5020160;28;20225;-83
2023/08/17 02:00:15;;;;;;;2.77;1.63;;;;;;;;;;5018975;28;20570;-83
2023/08/17 02:02:41;;;;;;;3.40;1.90;;;;;;;;;;5017158;28;20552;-82
2023/08/17 02:05:08;;;;;;;2.03;1.60;;;;;;;;;;4996745;28;20225;-82
2023/08/17 02:07:34;;;;;;;3.10;1.70;;;;;;;;;;5034368;28;20206;-83
2023/08/17 02:10:00;;;;;;;2.53;1.60;;;;;;;;;;5031672;28;20226;-83
2023/08/17 02:12:26;;;;;;;2.10;1.90;;;;;;;;;;5018433;28;20227;-83
2023/08/17 02:14:53;;;;;;;3.13;1.70;;;;;;;;;;5015029;28;20199;-83
2023/08/17 02:17:21;;;;;;;3.63;2.23;;;;;;;;;;5000573;28;20198;-83
2023/08/17 02:19:48;;;;;;;2.17;1.93;;;;;;;;;;5001834;28;20210;-82
2023/08/17 02:22:14;;;;;;;2.30;2.10;;;;;;;;;;5001290;28;20578;-83
2023/08/17 02:24:40;;;;;;;3.30;2.27;;;;;;;;;;5033480;28;20221;-83
2023/08/17 02:27:07;;;;;;;5.00;2.00;;;;;;;;;;5015548;28;20182;-83
2023/08/17 02:29:33;;;;;;;7.30;2.30;;;;;;;;;;5017472;28;20556;-83
2023/08/17 02:31:59;;;;;;;4.00;2.20;;;;;;;;;;5034690;28;20187;-83
2023/08/17 02:34:26;;;;;;;4.13;2.40;;;;;;;;;;4998727;28;20186;-82
2023/08/17 02:36:52;;;;;;;4.13;2.23;;;;;;;;;;5014952;28;20191;-83
2023/08/17 02:39:18;;;;;;;3.73;2.20;;;;;;;;;;5028627;28;20301;-83
2023/08/17 02:41:45;;;;;;;2.77;2.30;;;;;;;;;;5015540;28;20186;-83
2023/08/17 02:44:11;;;;;;;4.50;2.17;;;;;;;;;;5000155;28;20178;-83
2023/08/17 02:46:37;;;;;;;2.77;2.33;;;;;;;;;;5016251;28;20174;-82
2023/08/17 02:49:03;;;;;;;6.33;2.70;;;;;;;;;;5015025;28;20224;-84
2023/08/17 02:51:29;;;;;;;4.57;2.70;;;;;;;;;;5019300;28;20269;-83
2023/08/17 02:53:56;;;;;;;3.37;2.83;;;;;;;;;;4999238;28;20274;-83
2023/08/17 02:56:22;;;;;;;4.47;2.97;;;;;;;;;;5015095;28;20277;-82
2023/08/17 02:58:48;;;;;;;3.27;2.70;;;;;;;;;;5016870;28;20211;-83
2023/08/17 03:01:16;;;;;;;2.90;2.60;;;;;;;;;;5034825;28;20229;-83
2023/08/17 03:03:42;;;;;;;2.87;2.63;;;;;;;;;;5017647;28;20248;-83
2023/08/17 03:06:11;;;;;;;3.67;2.63;;;;;;;;;;5016362;28;20252;-83
2023/08/17 03:08:39;;;;;;;4.00;2.80;;;;;;;;;;5014770;28;20742;-83
2023/08/17 03:11:07;;;;;;;3.57;3.20;;;;;;;;;;5012318;28;20186;-82
2023/08/17 03:13:33;;;;;;;4.70;3.23;;;;;;;;;;5032172;28;20178;-83
2023/08/17 03:15:59;;;;;;;3.90;3.37;;;;;;;;;;4998404;28;20811;-83
2023/08/17 03:18:26;;;;;;;4.63;3.23;;;;;;;;;;5025627;28;20294;-83
2023/08/17 03:20:52;;;;;;;4.27;3.73;;;;;;;;;;5015606;28;20741;-83
2023/08/17 03:23:18;;;;;;;5.20;4.10;;;;;;;;;;5014923;28;20182;-83
2023/08/17 03:25:45;;;;;;;8.50;3.73;;;;;;;;;;4998806;28;20206;-83
2023/08/17 03:28:12;;;;;;;7.07;4.67;;;;;;;;;;5015172;28;20233;-83
2023/08/17 03:30:38;;;;;;;5.73;4.60;;;;;;;;;;4997985;28;20182;-83
2023/08/17 03:33:04;;;;;;;5.27;4.37;;;;;;;;;;4997758;28;20213;-83
2023/08/17 03:35:31;;;;;;;7.23;4.97;;;;;;;;;;4998549;28;20195;-83
2023/08/17 03:37:58;;;;;;;5.53;4.70;;;;;;;;;;5012324;28;20234;-83
2023/08/17 03:40:24;;;;;;;6.80;6.20;;;;;;;;;;5013989;28;20225;-83
2023/08/17 03:42:50;;;;;;;7.30;6.57;;;;;;;;;;5015958;28;20269;-83
2023/08/17 03:45:16;;;;;;;8.23;7.37;;;;;;;;;;4995404;28;20916;-83
2023/08/17 03:47:43;;;;;;;8.00;7.20;;;;;;;;;;5014906;28;20225;-83
2023/08/17 03:50:09;;;;;;;10.63;8.57;;;;;;;;;;4997217;28;20206;-82
2023/08/17 03:52:36;;;;;;;11.40;8.90;;;;;;;;;;5014463;28;20189;-82
2023/08/17 03:55:02;;;;;;;9.70;8.00;;;;;;;;;;4996776;28;20229;-83
2023/08/17 03:57:28;;;;;;;9.87;8.87;;;;;;;;;;5012668;28;20506;-83
2023/08/17 03:59:54;;;;;;;12.07;8.10;;;;;;;;;;5012009;28;20214;-83
2023/08/17 04:02:21;;;;;;;10.10;9.10;;;;;;;;;;5012784;28;20182;-83
2023/08/17 04:04:47;;;;;;;9.43;8.47;;;;;;;;;;5011979;28;20256;-83
2023/08/17 04:07:15;;;;;;;10.17;8.20;;;;;;;;;;5028407;28;20255;-83
2023/08/17 04:09:45;;;;;;;9.75;8.85;;;;;;;;;;5009592;28;20946;-83
2023/08/17 04:12:11;;;;;;;11.37;9.20;;;;;;;;;;5012122;28;20189;-83
2023/08/17 04:14:37;;;;;;;13.33;9.23;;;;;;;;;;5025913;28;20186;-83
2023/08/17 04:17:03;;;;;;;10.80;9.67;;;;;;;;;;4996531;28;20270;-83
2023/08/17 04:19:30;;;;;;;10.20;8.83;;;;;;;;;;5014703;28;20217;-82
2023/08/17 04:21:57;;;;;;;11.37;8.70;;;;;;;;;;5010694;28;20179;-83
2023/08/17 04:24:23;;;;;;;20.37;8.83;;;;;;;;;;5029100;28;20190;-83
2023/08/17 04:26:49;;;;;;;14.00;10.17;;;;;;;;;;5030790;28;20182;-83
2023/08/17 04:29:15;;;;;;;21.63;8.73;;;;;;;;;;4996569;28;20206;-83
2023/08/17 04:31:41;;;;;;;15.93;9.77;;;;;;;;;;5029267;28;20182;-83
2023/08/17 04:34:08;;;;;;;11.33;9.07;;;;;;;;;;5015933;28;20191;-83
2023/08/17 04:36:34;;;;;;;10.97;9.87;;;;;;;;;;4999508;28;20553;-83
2023/08/17 04:39:00;;;;;;;12.60;11.10;;;;;;;;;;5027561;28;20203;-83
2023/08/17 04:41:26;;;;;;;12.00;10.80;;;;;;;;;;5014649;28;20571;-83
2023/08/17 04:43:54;;;;;;;11.47;9.30;;;;;;;;;;5032319;28;20661;-82
2023/08/17 04:46:20;;;;;;;10.90;9.70;;;;;;;;;;4997955;28;20210;-83
2023/08/17 04:48:46;;;;;;;9.03;8.13;;;;;;;;;;5028172;28;20594;-83
2023/08/17 04:51:14;;;;;;;15.00;10.57;;;;;;;;;;4994864;28;20552;-82
2023/08/17 04:53:40;;;;;;;10.20;9.10;;;;;;;;;;4995763;28;20206;-83
2023/08/17 04:56:07;;;;;;;13.33;10.50;;;;;;;;;;5010584;28;20244;-84
2023/08/17 04:58:33;;;;;;;12.57;11.07;;;;;;;;;;5010836;28;20202;-83
2023/08/17 05:01:00;;;;;;;11.77;10.57;;;;;;;;;;4993508;28;20179;-83
2023/08/17 05:03:26;;;;;;;10.07;9.03;;;;;;;;;;5009920;28;20259;-83
2023/08/17 05:05:53;;;;;;;14.10;8.77;;;;;;;;;;5009412;28;20688;-77
2023/08/17 05:08:21;;;;;;;8.87;7.67;;;;;;;;;;5009064;28;20690;-80
2023/08/17 05:10:48;;;;;;;21.73;8.53;;;;;;;;;;5012647;28;20194;-80
2023/08/17 05:13:14;;;;;;;8.63;7.73;;;;;;;;;;5012144;28;20190;-76
2023/08/17 05:15:40;;;;;;;9.23;7.47;;;;;;;;;;5028558;28;20191;-77
2023/08/17 05:18:09;;;;;;;10.07;8.10;;;;;;;;;;4986358;28;20806;-76
2023/08/17 05:20:36;;;;;;;8.97;7.33;;;;;;;;;;5005324;28;20262;-76
2023/08/17 05:23:02;;;;;;;9.23;8.13;;;;;;;;;;5026795;28;20193;-76
2023/08/17 05:25:29;;;;;;;15.10;9.57;;;;;;;;;;5015295;28;20227;-77
2023/08/17 05:27:55;;;;;;;13.23;9.60;;;;;;;;;;5026549;28;20230;-78
2023/08/17 05:30:21;;;;;;;10.87;9.77;;;;;;;;;;5010457;28;20189;-76
2023/08/17 05:32:48;;;;;;;10.00;8.97;;;;;;;;;;5026989;28;20194;-75
2023/08/17 05:35:14;;;;;;;12.73;9.70;;;;;;;;;;5025354;28;20210;-75
2023/08/17 05:37:40;;;;;;;15.47;11.07;;;;;;;;;;5010636;28;20178;-76
2023/08/17 05:40:08;;;;;;;11.13;9.57;;;;;;;;;;5027016;28;20611;-76
2023/08/17 05:42:34;;;;;;;11.60;10.07;;;;;;;;;;4993144;28;20641;-77
2023/08/17 05:45:01;;;;;;;11.00;9.90;;;;;;;;;;5006253;28;20203;-77
2023/08/17 05:47:27;;;;;;;14.33;10.20;;;;;;;;;;5021754;28;20206;-77
2023/08/17 05:49:53;;;;;;;14.30;10.77;;;;;;;;;;5007326;28;20198;-77
2023/08/17 05:52:19;;;;;;;11.57;9.90;;;;;;;;;;5027380;28;20302;-77
2023/08/17 05:54:45;;;;;;;12.63;10.60;;;;;;;;;;5026132;28;20186;-78
2023/08/17 05:57:11;;;;;;;12.93;10.53;;;;;;;;;;5027764;28;20185;-79
2023/08/17 05:59:37;;;;;;;15.90;12.50;;;;;;;;;;5028639;28;20203;-79
2023/08/17 06:02:04;;;;;;;15.77;13.23;;;;;;;;;;5023458;28;20187;-78
2023/08/17 06:04:30;;;;;;;15.90;12.43;;;;;;;;;;5026323;28;20210;-77
2023/08/17 06:06:56;;;;;;;15.68;13.50;;;;;;;;;;5007908;28;20421;-78
2023/08/17 06:09:22;;;;;;;15.13;12.20;;;;;;;;;;5025987;28;20268;-77
2023/08/17 06:11:48;;;;;;;12.30;11.00;;;;;;;;;;5028425;28;20214;-78
2023/08/17 06:14:14;;;;;;;12.20;10.80;;;;;;;;;;5027432;28;20310;-78
2023/08/17 06:16:41;;;;;;;13.40;10.17;;;;;;;;;;5023691;28;20236;-78
2023/08/17 06:19:07;;;;;;;10.77;9.60;;;;;;;;;;5026506;28;20202;-77
2023/08/17 06:21:33;;;;;;;10.50;8.50;;;;;;;;;;5011566;28;20642;-78
2023/08/17 06:23:59;;;;;;;13.43;9.37;;;;;;;;;;5030089;28;20178;-78
2023/08/17 06:26:25;;;;;;;9.90;8.90;;;;;;;;;;5031827;28;20194;-78
2023/08/17 06:28:51;;;;;;;9.93;8.57;;;;;;;;;;5027699;28;20596;-78
2023/08/17 06:31:18;;;;;;;10.27;7.17;;;;;;;;;;5031395;28;20194;-78
2023/08/17 06:33:44;;;;;;;10.83;7.73;;;;;;;;;;5031550;28;20175;-78
2023/08/17 06:36:13;;;;;;;9.17;8.17;;;;;;;;;;5029242;28;20661;-78
2023/08/17 06:38:39;;;;;;;7.67;6.97;;;;;;;;;;5030176;28;20206;-79
2023/08/17 06:41:05;;;;;;;7.13;6.50;;;;;;;;;;5031100;28;20183;-77
2023/08/17 06:43:31;;;;;;;6.53;5.93;;;;;;;;;;5030512;28;20185;-77
2023/08/17 06:46:00;;;;;;;8.00;7.20;;;;;;;;;;5032709;28;20249;-78
2023/08/17 06:48:26;;;;;;;8.50;7.60;;;;;;;;;;5030052;28;20692;-77
2023/08/17 06:50:52;;;;;;;14.73;7.63;;;;;;;;;;5029547;28;20183;-77
2023/08/17 06:53:18;;;;;;;10.53;7.17;;;;;;;;;;5030801;28;20190;-77
2023/08/17 06:55:44;;;;;;;10.23;7.60;;;;;;;;;;5032072;28;20236;-77
2023/08/17 06:58:11;;;;;;;8.43;7.07;;;;;;;;;;5020913;28;20206;-78
2023/08/17 07:00:39;;;;;;;10.00;8.00;;;;;;;;;;5013812;28;20183;-79
2023/08/17 07:03:05;;;;;;;12.20;8.47;;;;;;;;;;5027443;28;20270;-78
2023/08/17 07:05:31;;;;;;;9.60;8.57;;;;;;;;;;5031835;28;20210;-78
2023/08/17 07:07:58;;;;;;;9.27;8.03;;;;;;;;;;5029607;28;20175;-78
2023/08/17 07:10:24;;;;;;;8.63;7.27;;;;;;;;;;5056525;22;20222;-78
2023/08/17 07:12:50;;;;;;;10.07;8.43;;;;;;;;;;5025212;28;20176;-78
2023/08/17 07:15:16;;;;;;;8.90;7.37;;;;;;;;;;5024931;28;20558;-78
2023/08/17 07:17:43;;;;;;;9.83;8.30;;;;;;;;;;5030044;28;20194;-78
2023/08/17 07:20:11;;;;;;;8.57;7.73;;;;;;;;;;5010501;28;20210;-78
2023/08/17 07:22:37;;;;;;;8.93;6.77;;;;;;;;;;5004282;28;20286;-81
2023/08/17 07:25:03;;;;;;;8.23;7.43;;;;;;;;;;5017074;28;20231;-80
2023/08/17 07:27:30;;;;;;;9.57;7.40;;;;;;;;;;5004246;28;20261;-80
2023/08/17 07:29:56;;;;;;;11.00;7.57;;;;;;;;;;5009672;28;20234;-78
2023/08/17 07:32:22;;;;;;;9.93;6.80;;;;;;;;;;5014731;28;20580;-79
2023/08/17 07:34:48;;;;;;;7.63;6.67;;;;;;;;;;5017935;28;20224;-78
2023/08/17 07:37:14;;;;;;;6.20;5.60;;;;;;;;;;5012213;28;20206;-78
2023/08/17 07:39:41;;;;;;;7.93;7.10;;;;;;;;;;5012006;28;20701;-78
2023/08/17 07:42:07;;;;;;;7.90;7.10;;;;;;;;;;5012636;28;20187;-78
2023/08/17 07:44:34;;;;;;;7.00;6.30;;;;;;;;;;5008570;28;20207;-78
2023/08/17 07:47:00;;;;;;;7.77;6.33;;;;;;;;;;5010648;28;20568;-78
2023/08/17 07:49:28;;;;;;;6.77;6.03;;;;;;;;;;5013020;28;20211;-79
2023/08/17 07:51:54;;;;;;;7.37;5.97;;;;;;;;;;5010219;28;20225;-79
2023/08/17 07:54:21;;;;;;;5.87;5.20;;;;;;;;;;5011898;28;20215;-79
2023/08/17 07:56:47;;;;;;;6.83;5.70;;;;;;;;;;5011768;28;20175;-79
2023/08/17 07:59:13;;;;;;;7.43;6.37;;;;;;;;;;5011109;28;20261;-79
2023/08/17 08:01:39;;;;;;;7.77;5.23;;;;;;;;;;5007508;28;20179;-78
2023/08/17 08:04:06;;;;;;;5.63;4.87;;;;;;;;;;5009723;28;20183;-78
2023/08/17 08:06:33;;;;;;;5.77;4.83;;;;;;;;;;5011797;28;20233;-78
2023/08/17 08:08:59;;;;;;;4.83;4.40;;;;;;;;;;5009364;28;20222;-81
2023/08/17 08:11:27;;;;;;;6.10;5.30;;;;;;;;;;5010434;28;20180;-79
2023/08/17 08:13:53;;;;;;;6.27;4.20;;;;;;;;;;5009684;28;20218;-79
2023/08/17 08:16:19;;;;;;;8.83;5.73;;;;;;;;;;5014264;28;20183;-79
2023/08/17 08:18:46;;;;;;;6.80;5.47;;;;;;;;;;5019609;28;20222;-79
2023/08/17 08:21:12;;;;;;;6.07;5.47;;;;;;;;;;5011306;28;20180;-79
2023/08/17 08:23:38;;;;;;;6.27;4.97;;;;;;;;;;5007521;28;20187;-78
2023/08/17 08:26:04;;;;;;;5.90;4.60;;;;;;;;;;5009922;28;20207;-78
2023/08/17 08:28:30;;;;;;;5.13;4.60;;;;;;;;;;5010939;28;20206;-78
2023/08/17 08:31:01;;;;;;;4.80;4.40;;;;;;;;;;5011100;28;20229;-78
2023/08/17 08:33:27;;;;;;;5.80;5.20;;;;;;;;;;5003618;28;20211;-78
2023/08/17 08:35:53;;;;;;;6.10;4.73;;;;;;;;;;5011617;28;20234;-78
2023/08/17 08:38:20;;;;;;;5.87;4.60;;;;;;;;;;5007108;28;20669;-80
2023/08/17 08:40:47;;;;;;;5.47;4.90;;;;;;;;;;5014540;28;20179;-80
2023/08/17 08:43:13;;;;;;;4.90;4.20;;;;;;;;;;5004958;28;20183;-79
2023/08/17 08:45:42;;;;;;;5.20;4.70;;;;;;;;;;5009712;28;20238;-78
2023/08/17 08:48:08;;;;;;;7.87;5.00;;;;;;;;;;5010236;28;20229;-78
2023/08/17 08:50:36;;;;;;;4.30;3.90;;;;;;;;;;5010493;28;20261;-80
2023/08/17 08:53:04;;;;;;;5.90;4.43;;;;;;;;;;5003069;28;20180;-81
2023/08/17 08:55:38;;;;;;;4.70;4.20;;;;;;;;;;5024822;28;20616;-79
2023/08/17 08:58:05;;;;;;;5.87;4.30;;;;;;;;;;5012628;28;20184;-78
2023/08/17 09:00:32;;;;;;;6.03;4.07;;;;;;;;;;5010399;28;20217;-78
2023/08/17 09:02:58;;;;;;;4.87;3.90;;;;;;;;;;5015491;28;20184;-79
2023/08/17 09:05:24;;;;;;;5.47;4.27;;;;;;;;;;5009157;28;20199;-78
2023/08/17 09:07:52;;;;;;;6.67;4.30;;;;;;;;;;5008528;28;20207;-78
2023/08/17 09:10:19;;;;;;;4.63;4.07;;;;;;;;;;5007896;28;20211;-78
2023/08/17 09:12:47;;;;;;;5.10;4.60;;;;;;;;;;5018119;28;20182;-79
2023/08/17 09:15:14;;;;;;;4.77;4.37;;;;;;;;;;5010790;28;20179;-79
2023/08/17 09:17:40;;;;;;;5.47;4.20;;;;;;;;;;5010712;28;20187;-78
2023/08/17 09:20:07;;;;;;;5.67;5.17;;;;;;;;;;5010211;28;20227;-78
2023/08/17 09:22:40;;;;;;;4.53;4.07;;;;;;;;;;5007341;28;20202;-80
2023/08/17 09:25:06;;;;;;;4.80;4.33;;;;;;;;;;5016430;28;20256;-79
2023/08/17 09:27:33;;;;;;;5.37;4.53;;;;;;;;;;5008714;28;20218;-78
2023/08/17 09:30:06;;;;;;;5.30;4.80;;;;;;;;;;5006443;28;20199;-78
2023/08/17 09:32:33;;;;;;;5.10;4.60;;;;;;;;;;5022252;28;20658;-78
2023/08/17 09:35:03;;;;;;;5.43;4.57;;;;;;;;;;5010372;28;20670;-78
2023/08/17 09:37:29;;;;;;;5.30;4.80;;;;;;;;;;5009090;28;20236;-78
2023/08/17 09:39:56;;;;;;;6.27;5.03;;;;;;;;;;4991614;28;20294;-81
2023/08/17 09:42:23;;;;;;;6.70;5.43;;;;;;;;;;5015664;28;20214;-78
2023/08/17 09:44:49;;;;;;;5.80;5.10;;;;;;;;;;4992391;28;20204;-78
2023/08/17 09:47:21;;;;;;;6.20;5.70;;;;;;;;;;5011407;28;20181;-79
2023/08/17 09:49:53;;;;;;;8.30;6.53;;;;;;;;;;5009648;28;20203;-77
2023/08/17 09:52:26;;;;;;;5.70;5.20;;;;;;;;;;5003978;28;20192;-77
2023/08/17 09:54:54;;;;;;;5.17;4.40;;;;;;;;;;5006202;28;20674;-78
2023/08/17 09:57:24;;;;;;;5.40;4.90;;;;;;;;;;5024931;28;20179;-78
2023/08/17 09:59:54;;;;;;;4.80;4.30;;;;;;;;;;5013518;28;20659;-78
2023/08/17 10:02:23;;;;;;;5.57;5.07;;;;;;;;;;5012087;28;20172;-79
2023/08/17 10:04:52;;;;;;;5.03;4.60;;;;;;;;;;5009918;28;20637;-81
2023/08/17 10:07:24;;;;;;;5.77;4.40;;;;;;;;;;5008598;28;20188;-77
2023/08/17 10:09:54;;;;;;;4.30;3.90;;;;;;;;;;5011582;28;20595;-78
2023/08/17 10:12:23;;;;;;;6.23;4.23;;;;;;;;;;5012075;28;20557;-80
2023/08/17 10:14:55;;;;;;;4.00;3.57;;;;;;;;;;5013679;28;20260;-79
2023/08/17 10:17:28;;;;;;;5.77;3.90;;;;;;;;;;5008799;28;20215;-77
2023/08/17 10:19:55;;;;;;;5.63;4.03;;;;;;;;;;5013824;28;20214;-77
2023/08/17 10:22:42;;;;;;;6.20;4.13;;;;;;;;;;5011576;28;20185;-78
2023/08/17 10:25:11;;;;;;;5.53;3.80;;;;;;;;;;5021442;28;20636;-78
2023/08/17 10:27:37;;;;;;;4.97;4.50;;;;;;;;;;5013316;28;20670;-78
2023/08/17 10:30:04;;;;;;;4.60;4.20;;;;;;;;;;5013391;28;20201;-78
2023/08/17 10:32:31;;;;;;;4.93;4.53;;;;;;;;;;5008967;28;20266;-78
2023/08/17 10:35:00;;;;;;;4.77;3.73;;;;;;;;;;5015078;28;20193;-78
2023/08/17 10:37:26;;;;;;;4.63;4.23;;;;;;;;;;5002777;28;20192;-78
2023/08/17 10:39:52;;;;;;;4.63;4.23;;;;;;;;;;5009225;28;20222;-78
2023/08/17 10:42:32;;;;;;;4.37;3.97;;;;;;;;;;4995982;28;20234;-79
2023/08/17 10:45:03;;;;;;;6.33;4.57;;;;;;;;;;5011982;28;20199;-80
2023/08/17 10:47:35;;;;;;;5.30;4.80;;;;;;;;;;5020282;28;20184;-78
2023/08/17 10:50:23;;;;;;;4.70;4.20;;;;;;;;;;5026411;28;20241;-79
2023/08/17 10:52:50;;;;;;;6.37;4.40;;;;;;;;;;5011153;28;20199;-80
2023/08/17 10:55:16;;;;;;;5.20;4.70;;;;;;;;;;5004019;28;20198;-80
2023/08/17 10:57:45;;;;;;;4.30;4.00;;;;;;;;;;5012673;28;20191;-79
2023/08/17 11:00:29;;;;;;;4.63;4.23;;;;;;;;;;5011372;28;20223;-79
2023/08/17 11:03:00;;;;;;;4.67;4.27;;;;;;;;;;5025113;28;20192;-79
2023/08/17 11:05:58;;;;;;;4.87;4.37;;;;;;;;;;5012662;28;20614;-78
2023/08/17 11:08:29;;;;;;;4.33;4.00;;;;;;;;;;5022678;28;20662;-80
2023/08/17 11:11:11;;;;;;;4.30;4.00;;;;;;;;;;5010490;28;20187;-79
2023/08/17 11:13:38;;;;;;;4.57;4.17;;;;;;;;;;5009159;28;20208;-78
2023/08/17 11:16:05;;;;;;;4.80;4.40;;;;;;;;;;5018593;28;20562;-80
2023/08/17 11:18:32;;;;;;;4.73;4.30;;;;;;;;;;5009314;28;20194;-78
2023/08/17 11:20:58;;;;;;;5.00;4.60;;;;;;;;;;5010883;28;20666;-79
2023/08/17 11:23:25;;;;;;;5.63;4.87;;;;;;;;;;5007268;28;20266;-78
2023/08/17 11:25:54;;;;;;;6.80;4.87;;;;;;;;;;5017016;28;20222;-78
2023/08/17 11:28:24;;;;;;;5.20;4.70;;;;;;;;;;5007014;28;20183;-79
2023/08/17 11:31:00;;;;;;;7.03;4.37;;;;;;;;;;5008286;28;20191;-79
2023/08/17 11:33:26;;;;;;;5.00;4.33;;;;;;;;;;5003995;28;20236;-79
2023/08/17 11:35:55;;;;;;;5.13;4.00;;;;;;;;;;5010834;28;20198;-79
2023/08/17 11:38:23;;;;;;;4.80;4.40;;;;;;;;;;5003875;28;20210;-79
2023/08/17 11:40:49;;;;;;;4.03;3.63;;;;;;;;;;5027004;28;20187;-79
2023/08/17 11:43:16;;;;;;;4.60;3.87;;;;;;;;;;5010196;28;20175;-81
2023/08/17 11:45:42;;;;;;;4.73;4.20;;;;;;;;;;5017603;28;20224;-78
2023/08/17 11:48:09;;;;;;;4.67;4.30;;;;;;;;;;5017680;28;20190;-79
2023/08/17 11:50:35;;;;;;;4.83;4.33;;;;;;;;;;5011570;28;20211;-78
2023/08/17 11:53:01;;;;;;;5.17;4.07;;;;;;;;;;5012381;28;20187;-80
2023/08/17 11:55:28;;;;;;;4.67;4.27;;;;;;;;;;5012846;28;20190;-80
2023/08/17 11:57:54;;;;;;;4.90;4.40;;;;;;;;;;5011461;28;20195;-79
2023/08/17 12:00:21;;;;;;;4.87;4.47;;;;;;;;;;5011691;28;20290;-79
2023/08/17 12:02:50;;;;;;;5.00;4.27;;;;;;;;;;5029217;28;20183;-79
2023/08/17 12:05:23;;;;;;;4.60;4.20;;;;;;;;;;5010125;28;20212;-80
2023/08/17 12:07:50;;;;;;;4.23;3.83;;;;;;;;;;5011385;28;20238;-79
2023/08/17 12:10:25;;;;;;;4.97;3.87;;;;;;;;;;5009835;28;20300;-78
2023/08/17 12:12:51;;;;;;;4.53;4.13;;;;;;;;;;5009957;28;20203;-78
2023/08/17 12:15:17;;;;;;;4.60;4.20;;;;;;;;;;5012815;28;20183;-78
2023/08/17 12:17:52;;;;;;;5.80;4.30;;;;;;;;;;5016180;28;20180;-79
2023/08/17 12:20:22;;;;;;;4.53;4.13;;;;;;;;;;5016002;28;20207;-78
2023/08/17 12:22:48;;;;;;;4.87;4.40;;;;;;;;;;5009395;28;20199;-78
2023/08/17 12:25:15;;;;;;;5.33;4.37;;;;;;;;;;5009975;28;20218;-78
2023/08/17 12:27:41;;;;;;;4.20;3.90;;;;;;;;;;5015955;28;20197;-83
2023/08/17 12:30:15;;;;;;;4.40;4.00;;;;;;;;;;5021947;28;20216;-77
2023/08/17 12:32:41;;;;;;;5.73;4.73;;;;;;;;;;5023899;28;20191;-79
2023/08/17 12:35:07;;;;;;;5.37;4.00;;;;;;;;;;5023002;28;20193;-79
2023/08/17 12:37:33;;;;;;;4.27;3.87;;;;;;;;;;5008805;28;20183;-80
2023/08/17 12:40:00;;;;;;;4.37;4.07;;;;;;;;;;5029141;28;20205;-80
2023/08/17 12:42:26;;;;;;;4.40;3.90;;;;;;;;;;5021542;28;20187;-83
2023/08/17 12:44:52;;;;;;;4.57;4.17;;;;;;;;;;5008988;28;20247;-80
2023/08/17 12:47:18;;;;;;;4.70;4.30;;;;;;;;;;5010444;28;20235;-80
2023/08/17 12:49:46;;;;;;;4.07;3.70;;;;;;;;;;5014093;28;20200;-78
2023/08/17 12:52:13;;;;;;;4.10;3.80;;;;;;;;;;5009089;28;20186;-78
2023/08/17 12:54:39;;;;;;;4.63;4.23;;;;;;;;;;5007752;28;20253;-80
2023/08/17 12:57:05;;;;;;;4.60;4.00;;;;;;;;;;5013417;28;20252;-79
2023/08/17 12:59:32;;;;;;;4.80;4.30;;;;;;;;;;5008730;28;21139;-79
2023/08/17 13:01:58;;;;;;;4.63;4.23;;;;;;;;;;5010072;28;20243;-79
2023/08/17 13:04:24;;;;;;;4.17;3.87;;;;;;;;;;5009148;28;20181;-79
2023/08/17 13:06:51;;;;;;;4.33;3.93;;;;;;;;;;5006616;28;20199;-79
2023/08/17 13:09:18;;;;;;;4.10;3.70;;;;;;;;;;5044178;22;20247;-79
2023/08/17 13:11:45;;;;;;;4.03;3.73;;;;;;;;;;5063653;28;20192;-81
2023/08/17 13:14:12;;;;;;;4.17;3.43;;;;;;;;;;5066711;28;20209;-80
2023/08/17 13:16:38;;;;;;;4.40;4.00;;;;;;;;;;5069082;28;20205;-80
2023/08/17 13:19:04;;;;;;;4.07;3.67;;;;;;;;;;5049624;28;20239;-80
2023/08/17 13:21:31;;;;;;;5.07;3.70;;;;;;;;;;5052005;28;20178;-80
2023/08/17 13:23:59;;;;;;;4.17;3.77;;;;;;;;;;5035792;28;20188;-80
2023/08/17 13:26:26;;;;;;;5.37;3.83;;;;;;;;;;5003747;28;20211;-78
2023/08/17 13:28:52;;;;;;;4.27;3.83;;;;;;;;;;5030875;28;20183;-78
2023/08/17 13:31:18;;;;;;;4.40;4.00;;;;;;;;;;5029978;28;20175;-78
2023/08/17 13:33:47;;;;;;;6.33;4.23;;;;;;;;;;5021926;28;20712;-79
2023/08/17 13:36:13;;;;;;;5.23;3.87;;;;;;;;;;5016705;28;20200;-78
2023/08/17 13:38:39;;;;;;;3.90;3.60;;;;;;;;;;5019995;28;20184;-78
2023/08/17 13:41:08;;;;;;;5.47;3.97;;;;;;;;;;5019371;28;20505;-78
2023/08/17 13:43:34;;;;;;;3.87;3.57;;;;;;;;;;5015842;28;20187;-78
2023/08/17 13:46:06;;;;;;;3.87;3.53;;;;;;;;;;5019642;28;20210;-78
2023/08/17 13:48:32;;;;;;;3.93;3.50;;;;;;;;;;5033451;28;20596;-78
2023/08/17 13:50:58;;;;;;;3.90;3.53;;;;;;;;;;5016237;28;20210;-78
2023/08/17 13:53:27;;;;;;;3.90;3.60;;;;;;;;;;5014805;28;20577;-80
2023/08/17 13:55:53;;;;;;;4.37;3.97;;;;;;;;;;5023629;28;20192;-80
2023/08/17 13:58:20;;;;;;;6.40;3.93;;;;;;;;;;5015562;28;20547;-79
2023/08/17 14:00:46;;;;;;;4.40;3.50;;;;;;;;;;5012567;28;20206;-79
2023/08/17 14:03:12;;;;;;;4.90;4.50;;;;;;;;;;5012705;28;22044;-79
2023/08/17 14:05:39;;;;;;;4.93;4.43;;;;;;;;;;5004391;28;20307;-79
2023/08/17 14:08:06;;;;;;;5.23;4.30;;;;;;;;;;5028918;28;20580;-79
2023/08/17 14:10:33;;;;;;;4.40;4.00;;;;;;;;;;5012864;28;20210;-79
2023/08/17 14:12:59;;;;;;;5.37;3.77;;;;;;;;;;5000149;28;20191;-79
2023/08/17 14:15:25;;;;;;;3.70;3.40;;;;;;;;;;5016440;28;20199;-79
2023/08/17 14:17:51;;;;;;;4.73;3.73;;;;;;;;;;5025806;28;20653;-80
2023/08/17 14:20:20;;;;;;;4.13;3.83;;;;;;;;;;5025675;28;20267;-79
2023/08/17 14:22:46;;;;;;;3.80;3.50;;;;;;;;;;5014835;28;20197;-80
2023/08/17 14:25:12;;;;;;;6.10;3.63;;;;;;;;;;4996836;28;20211;-80
2023/08/17 14:27:38;;;;;;;4.37;3.63;;;;;;;;;;5014627;28;20240;-81
2023/08/17 14:30:07;;;;;;;3.80;3.50;;;;;;;;;;5033622;28;20203;-79
2023/08/17 14:32:33;;;;;;;3.60;3.30;;;;;;;;;;5034860;28;20181;-79
2023/08/17 14:35:01;;;;;;;5.23;3.83;;;;;;;;;;5035271;28;20655;-79
2023/08/17 14:37:30;;;;;;;5.07;3.67;;;;;;;;;;5017965;28;20179;-79
2023/08/17 14:39:57;;;;;;;3.50;3.20;;;;;;;;;;5033496;28;20214;-80
2023/08/17 14:42:25;;;;;;;4.10;3.70;;;;;;;;;;5016948;28;20832;-79